sensor_id;sensor_type;location;lat;lon;timestamp;temperature;humidity
15554;DHT22;7878;44.632;10.942;2023-10-13T00:01:57;22.00;99.90
15554;DHT22;7878;44.632;10.942;2023-10-13T00:04:30;22.10;99.90
15554;DHT22;7878;44.632;10.942;2023-10-13T00:06:58;22.00;99.90
15554;DHT22;7878;44.632;10.942;2023-10-13T00:09:28;22.10;99.90
15554;DHT22;7878;44.632;10.942;2023-10-13T00:12:07;22.10;99.90
15554;DHT22;7878;44.632;10.942;2023-10-13T00:14:39;22.00;99.90
15554;DHT22;7878;44.632;10.942;2023-10-13T00:17:07;22.00;99.90
15554;DHT22;7878;44.632;10.942;2023-10-13T00:19:38;22.00;99.90
15554;DHT22;7878;44.632;10.942;2023-10-13T00:22:10;22.00;99.90
15554;DHT22;7878;44.632;10.942;2023-10-13T00:24:38;21.90;99.90
15554;DHT22;7878;44.632;10.942;2023-10-13T00:27:20;21.90;99.90
15554;DHT22;7878;44.632;10.942;2023-10-13T00:30:02;21.90;99.90
15554;DHT22;7878;44.632;10.942;2023-10-13T00:32:49;21.90;99.90
15554;DHT22;7878;44.632;10.942;2023-10-13T00:35:25;21.80;99.90
15554;DHT22;7878;44.632;10.942;2023-10-13T00:37:58;21.80;99.90
15554;DHT22;7878;44.632;10.942;2023-10-13T00:40:41;21.70;99.90
15554;DHT22;7878;44.632;10.942;2023-10-13T00:43:08;21.70;99.90
15554;DHT22;7878;44.632;10.942;2023-10-13T00:45:47;21.60;99.90
15554;DHT22;7878;44.632;10.942;2023-10-13T00:48:24;21.60;99.90
15554;DHT22;7878;44.632;10.942;2023-10-13T00:50:56;21.60;99.90
15554;DHT22;7878;44.632;10.942;2023-10-13T00:53:23;21.60;99.90
15554;DHT22;7878;44.632;10.942;2023-10-13T00:55:51;21.50;99.90
15554;DHT22;7878;44.632;10.942;2023-10-13T00:58:17;21.60;99.90
15554;DHT22;7878;44.632;10.942;2023-10-13T01:00:49;21.60;99.90
15554;DHT22;7878;44.632;10.942;2023-10-13T01:03:23;21.60;99.90
15554;DHT22;7878;44.632;10.942;2023-10-13T01:05:55;21.60;99.90
15554;DHT22;7878;44.632;10.942;2023-10-13T01:08:33;21.50;99.90
15554;DHT22;7878;44.632;10.942;2023-10-13T01:11:04;21.60;99.90
15554;DHT22;7878;44.632;10.942;2023-10-13T01:13:33;21.60;99.90
15554;DHT22;7878;44.632;10.942;2023-10-13T01:16:02;21.60;99.90
15554;DHT22;7878;44.632;10.942;2023-10-13T01:18:27;21.60;99.90
15554;DHT22;7878;44.632;10.942;2023-10-13T01:20:54;21.60;99.90
15554;DHT22;7878;44.632;10.942;2023-10-13T01:23:27;21.50;99.90
15554;DHT22;7878;44.632;10.942;2023-10-13T01:25:54;21.50;99.90
15554;DHT22;7878;44.632;10.942;2023-10-13T01:28:22;21.50;99.90
15554;DHT22;7878;44.632;10.942;2023-10-13T01:30:49;21.40;99.90
15554;DHT22;7878;44.632;10.942;2023-10-13T01:33:18;21.40;99.90
15554;DHT22;7878;44.632;10.942;2023-10-13T01:35:52;21.40;99.90
15554;DHT22;7878;44.632;10.942;2023-10-13T01:38:20;21.40;99.90
15554;DHT22;7878;44.632;10.942;2023-10-13T01:40:46;21.40;99.90
15554;DHT22;7878;44.632;10.942;2023-10-13T01:43:16;21.40;99.90
15554;DHT22;7878;44.632;10.942;2023-10-13T01:45:43;21.40;99.90
15554;DHT22;7878;44.632;10.942;2023-10-13T01:48:12;21.30;99.90
15554;DHT22;7878;44.632;10.942;2023-10-13T01:50:43;21.30;99.90
15554;DHT22;7878;44.632;10.942;2023-10-13T01:53:13;21.30;99.90
15554;DHT22;7878;44.632;10.942;2023-10-13T01:55:43;21.30;99.90
15554;DHT22;7878;44.632;10.942;2023-10-13T01:58:15;21.30;99.90
15554;DHT22;7878;44.632;10.942;2023-10-13T02:00:44;21.30;99.90
15554;DHT22;7878;44.632;10.942;2023-10-13T02:03:11;21.30;99.90
15554;DHT22;7878;44.632;10.942;2023-10-13T02:05:47;21.30;99.90
15554;DHT22;7878;44.632;10.942;2023-10-13T02:08:18;21.30;99.90
15554;DHT22;7878;44.632;10.942;2023-10-13T02:10:54;21.30;99.90
15554;DHT22;7878;44.632;10.942;2023-10-13T02:13:21;21.20;99.90
15554;DHT22;7878;44.632;10.942;2023-10-13T02:15:49;21.20;99.90
15554;DHT22;7878;44.632;10.942;2023-10-13T02:18:18;21.20;99.90
15554;DHT22;7878;44.632;10.942;2023-10-13T02:20:52;21.20;99.90
15554;DHT22;7878;44.632;10.942;2023-10-13T02:23:25;21.10;99.90
15554;DHT22;7878;44.632;10.942;2023-10-13T02:25:54;21.10;99.90
15554;DHT22;7878;44.632;10.942;2023-10-13T02:28:28;21.10;99.90
15554;DHT22;7878;44.632;10.942;2023-10-13T02:31:04;21.10;99.90
15554;DHT22;7878;44.632;10.942;2023-10-13T02:33:32;21.00;99.90
15554;DHT22;7878;44.632;10.942;2023-10-13T02:36:03;21.00;99.90
15554;DHT22;7878;44.632;10.942;2023-10-13T02:38:34;21.00;99.90
15554;DHT22;7878;44.632;10.942;2023-10-13T02:41:00;21.00;99.90
15554;DHT22;7878;44.632;10.942;2023-10-13T02:43:33;21.00;99.90
15554;DHT22;7878;44.632;10.942;2023-10-13T02:45:59;21.00;99.90
15554;DHT22;7878;44.632;10.942;2023-10-13T02:48:26;21.00;99.90
15554;DHT22;7878;44.632;10.942;2023-10-13T02:50:57;21.00;99.90
15554;DHT22;7878;44.632;10.942;2023-10-13T02:53:28;21.00;99.90
15554;DHT22;7878;44.632;10.942;2023-10-13T02:55:54;21.00;99.90
15554;DHT22;7878;44.632;10.942;2023-10-13T02:58:32;21.00;99.90
15554;DHT22;7878;44.632;10.942;2023-10-13T03:01:12;21.00;99.90
15554;DHT22;7878;44.632;10.942;2023-10-13T03:03:54;21.00;99.90
15554;DHT22;7878;44.632;10.942;2023-10-13T03:06:22;20.90;99.90
15554;DHT22;7878;44.632;10.942;2023-10-13T03:08:51;20.90;99.90
15554;DHT22;7878;44.632;10.942;2023-10-13T03:11:17;20.80;99.90
15554;DHT22;7878;44.632;10.942;2023-10-13T03:13:47;20.80;99.90
15554;DHT22;7878;44.632;10.942;2023-10-13T03:16:16;20.80;99.90
15554;DHT22;7878;44.632;10.942;2023-10-13T03:18:47;20.70;99.90
15554;DHT22;7878;44.632;10.942;2023-10-13T03:21:21;20.70;99.90
15554;DHT22;7878;44.632;10.942;2023-10-13T03:23:56;20.70;99.90
15554;DHT22;7878;44.632;10.942;2023-10-13T03:26:22;20.60;99.90
15554;DHT22;7878;44.632;10.942;2023-10-13T03:28:47;20.70;99.90
15554;DHT22;7878;44.632;10.942;2023-10-13T03:31:19;20.60;99.90
15554;DHT22;7878;44.632;10.942;2023-10-13T03:33:45;20.70;99.90
15554;DHT22;7878;44.632;10.942;2023-10-13T03:36:13;20.60;99.90
15554;DHT22;7878;44.632;10.942;2023-10-13T03:38:59;20.60;99.90
15554;DHT22;7878;44.632;10.942;2023-10-13T03:41:24;20.60;99.90
15554;DHT22;7878;44.632;10.942;2023-10-13T03:43:55;20.60;99.90
15554;DHT22;7878;44.632;10.942;2023-10-13T03:46:34;20.60;99.90
15554;DHT22;7878;44.632;10.942;2023-10-13T03:49:02;20.60;99.90
15554;DHT22;7878;44.632;10.942;2023-10-13T03:51:31;20.60;99.90
15554;DHT22;7878;44.632;10.942;2023-10-13T03:53:57;20.50;99.90
15554;DHT22;7878;44.632;10.942;2023-10-13T03:56:28;20.50;99.90
15554;DHT22;7878;44.632;10.942;2023-10-13T03:58:57;20.40;99.90
15554;DHT22;7878;44.632;10.942;2023-10-13T04:01:29;20.50;99.90
15554;DHT22;7878;44.632;10.942;2023-10-13T04:04:00;20.40;99.90
15554;DHT22;7878;44.632;10.942;2023-10-13T04:06:32;20.50;99.90
15554;DHT22;7878;44.632;10.942;2023-10-13T04:09:23;20.50;99.90
15554;DHT22;7878;44.632;10.942;2023-10-13T04:12:04;20.50;99.90
15554;DHT22;7878;44.632;10.942;2023-10-13T04:14:32;20.40;99.90
15554;DHT22;7878;44.632;10.942;2023-10-13T04:17:17;20.40;99.90
15554;DHT22;7878;44.632;10.942;2023-10-13T04:19:52;20.40;99.90
15554;DHT22;7878;44.632;10.942;2023-10-13T04:22:33;20.30;99.90
15554;DHT22;7878;44.632;10.942;2023-10-13T04:25:22;20.30;99.90
15554;DHT22;7878;44.632;10.942;2023-10-13T04:27:53;20.20;99.90
15554;DHT22;7878;44.632;10.942;2023-10-13T04:30:44;20.20;99.90
15554;DHT22;7878;44.632;10.942;2023-10-13T04:33:29;20.20;99.90
15554;DHT22;7878;44.632;10.942;2023-10-13T04:36:16;20.20;99.90
15554;DHT22;7878;44.632;10.942;2023-10-13T04:38:47;20.20;99.90
15554;DHT22;7878;44.632;10.942;2023-10-13T04:41:39;20.10;99.90
15554;DHT22;7878;44.632;10.942;2023-10-13T04:44:08;20.20;99.90
15554;DHT22;7878;44.632;10.942;2023-10-13T04:46:50;20.20;99.90
15554;DHT22;7878;44.632;10.942;2023-10-13T04:49:15;20.10;99.90
15554;DHT22;7878;44.632;10.942;2023-10-13T04:52:05;20.10;99.90
15554;DHT22;7878;44.632;10.942;2023-10-13T04:54:34;20.20;99.90
15554;DHT22;7878;44.632;10.942;2023-10-13T04:57:22;20.20;99.90
15554;DHT22;7878;44.632;10.942;2023-10-13T04:59:52;20.10;99.90
15554;DHT22;7878;44.632;10.942;2023-10-13T05:02:41;20.10;99.90
15554;DHT22;7878;44.632;10.942;2023-10-13T05:05:13;20.10;99.90
15554;DHT22;7878;44.632;10.942;2023-10-13T05:07:40;20.10;99.90
15554;DHT22;7878;44.632;10.942;2023-10-13T05:10:24;20.20;99.90
15554;DHT22;7878;44.632;10.942;2023-10-13T05:13:08;20.20;99.90
15554;DHT22;7878;44.632;10.942;2023-10-13T05:15:52;20.20;99.90
15554;DHT22;7878;44.632;10.942;2023-10-13T05:18:36;20.20;99.90
15554;DHT22;7878;44.632;10.942;2023-10-13T05:21:21;20.10;99.90
15554;DHT22;7878;44.632;10.942;2023-10-13T05:24:05;20.20;99.90
15554;DHT22;7878;44.632;10.942;2023-10-13T05:26:50;20.10;99.90
15554;DHT22;7878;44.632;10.942;2023-10-13T05:29:38;20.10;99.90
15554;DHT22;7878;44.632;10.942;2023-10-13T05:32:22;20.20;99.90
15554;DHT22;7878;44.632;10.942;2023-10-13T05:35:06;20.10;99.90
15554;DHT22;7878;44.632;10.942;2023-10-13T05:37:50;20.10;99.90
15554;DHT22;7878;44.632;10.942;2023-10-13T05:40:34;20.10;99.90
15554;DHT22;7878;44.632;10.942;2023-10-13T05:43:18;20.10;99.90
15554;DHT22;7878;44.632;10.942;2023-10-13T05:46:04;20.10;99.90
15554;DHT22;7878;44.632;10.942;2023-10-13T05:48:48;20.20;99.90
15554;DHT22;7878;44.632;10.942;2023-10-13T05:51:24;20.20;99.90
15554;DHT22;7878;44.632;10.942;2023-10-13T05:54:10;20.20;99.90
15554;DHT22;7878;44.632;10.942;2023-10-13T05:56:43;20.10;99.90
15554;DHT22;7878;44.632;10.942;2023-10-13T05:59:28;20.20;99.90
15554;DHT22;7878;44.632;10.942;2023-10-13T06:02:14;20.20;99.90
15554;DHT22;7878;44.632;10.942;2023-10-13T06:05:06;20.20;99.90
15554;DHT22;7878;44.632;10.942;2023-10-13T06:07:51;20.20;99.90
15554;DHT22;7878;44.632;10.942;2023-10-13T06:10:37;20.20;99.90
15554;DHT22;7878;44.632;10.942;2023-10-13T06:13:21;20.20;99.90
15554;DHT22;7878;44.632;10.942;2023-10-13T06:16:09;20.20;99.90
15554;DHT22;7878;44.632;10.942;2023-10-13T06:18:54;20.30;99.90
15554;DHT22;7878;44.632;10.942;2023-10-13T06:21:38;20.30;99.90
15554;DHT22;7878;44.632;10.942;2023-10-13T06:24:22;20.30;99.90
15554;DHT22;7878;44.632;10.942;2023-10-13T06:27:06;20.40;99.90
15554;DHT22;7878;44.632;10.942;2023-10-13T06:29:50;20.40;99.90
15554;DHT22;7878;44.632;10.942;2023-10-13T06:32:25;20.30;99.90
15554;DHT22;7878;44.632;10.942;2023-10-13T06:34:54;20.20;99.90
15554;DHT22;7878;44.632;10.942;2023-10-13T06:37:26;20.30;99.90
15554;DHT22;7878;44.632;10.942;2023-10-13T06:39:57;20.40;99.90
15554;DHT22;7878;44.632;10.942;2023-10-13T06:42:23;20.50;99.90
15554;DHT22;7878;44.632;10.942;2023-10-13T06:44:55;20.50;99.90
15554;DHT22;7878;44.632;10.942;2023-10-13T06:47:22;20.60;99.90
15554;DHT22;7878;44.632;10.942;2023-10-13T06:49:48;20.60;99.90
15554;DHT22;7878;44.632;10.942;2023-10-13T06:52:17;20.70;99.90
15554;DHT22;7878;44.632;10.942;2023-10-13T06:54:43;20.70;99.90
15554;DHT22;7878;44.632;10.942;2023-10-13T06:57:09;20.80;99.90
15554;DHT22;7878;44.632;10.942;2023-10-13T06:59:46;20.80;99.90
15554;DHT22;7878;44.632;10.942;2023-10-13T07:02:12;20.70;99.90
15554;DHT22;7878;44.632;10.942;2023-10-13T07:04:47;20.80;99.90
15554;DHT22;7878;44.632;10.942;2023-10-13T07:07:12;20.80;99.90
15554;DHT22;7878;44.632;10.942;2023-10-13T07:09:44;20.90;99.90
15554;DHT22;7878;44.632;10.942;2023-10-13T07:12:21;20.80;99.90
15554;DHT22;7878;44.632;10.942;2023-10-13T07:14:52;20.90;99.90
15554;DHT22;7878;44.632;10.942;2023-10-13T07:17:19;21.00;99.90
15554;DHT22;7878;44.632;10.942;2023-10-13T07:19:54;21.00;99.90
15554;DHT22;7878;44.632;10.942;2023-10-13T07:22:25;21.10;99.90
15554;DHT22;7878;44.632;10.942;2023-10-13T07:24:53;21.20;99.90
15554;DHT22;7878;44.632;10.942;2023-10-13T07:27:19;21.30;99.90
15554;DHT22;7878;44.632;10.942;2023-10-13T07:29:53;21.30;99.90
15554;DHT22;7878;44.632;10.942;2023-10-13T07:32:32;21.30;99.90
15554;DHT22;7878;44.632;10.942;2023-10-13T07:34:59;21.40;99.90
15554;DHT22;7878;44.632;10.942;2023-10-13T07:37:35;21.50;99.90
15554;DHT22;7878;44.632;10.942;2023-10-13T07:40:00;21.60;99.90
15554;DHT22;7878;44.632;10.942;2023-10-13T07:42:26;21.70;99.90
15554;DHT22;7878;44.632;10.942;2023-10-13T07:45:05;21.80;99.90
15554;DHT22;7878;44.632;10.942;2023-10-13T07:47:31;21.80;99.90
15554;DHT22;7878;44.632;10.942;2023-10-13T07:49:59;21.80;99.90
15554;DHT22;7878;44.632;10.942;2023-10-13T07:52:24;21.90;99.90
15554;DHT22;7878;44.632;10.942;2023-10-13T07:54:52;22.00;99.90
15554;DHT22;7878;44.632;10.942;2023-10-13T07:57:41;22.10;99.90
15554;DHT22;7878;44.632;10.942;2023-10-13T08:00:23;22.10;99.90
15554;DHT22;7878;44.632;10.942;2023-10-13T08:03:05;22.20;99.90
15554;DHT22;7878;44.632;10.942;2023-10-13T08:05:35;22.30;99.90
15554;DHT22;7878;44.632;10.942;2023-10-13T08:08:19;22.40;99.90
15554;DHT22;7878;44.632;10.942;2023-10-13T08:10:47;22.40;99.90
15554;DHT22;7878;44.632;10.942;2023-10-13T08:13:12;22.50;99.90
15554;DHT22;7878;44.632;10.942;2023-10-13T08:15:44;22.60;99.90
15554;DHT22;7878;44.632;10.942;2023-10-13T08:18:15;22.70;99.90
15554;DHT22;7878;44.632;10.942;2023-10-13T08:21:02;22.70;99.90
15554;DHT22;7878;44.632;10.942;2023-10-13T08:23:32;22.80;99.90
15554;DHT22;7878;44.632;10.942;2023-10-13T08:26:16;22.80;99.90
15554;DHT22;7878;44.632;10.942;2023-10-13T08:29:01;22.90;99.90
15554;DHT22;7878;44.632;10.942;2023-10-13T08:31:47;22.90;99.90
15554;DHT22;7878;44.632;10.942;2023-10-13T08:34:31;23.00;99.90
15554;DHT22;7878;44.632;10.942;2023-10-13T08:37:09;23.10;99.90
15554;DHT22;7878;44.632;10.942;2023-10-13T08:39:51;23.20;99.90
15554;DHT22;7878;44.632;10.942;2023-10-13T08:42:37;23.30;99.90
15554;DHT22;7878;44.632;10.942;2023-10-13T08:45:15;23.20;99.90
15554;DHT22;7878;44.632;10.942;2023-10-13T08:47:50;23.30;99.90
15554;DHT22;7878;44.632;10.942;2023-10-13T08:50:22;23.40;99.90
15554;DHT22;7878;44.632;10.942;2023-10-13T08:53:18;23.50;99.90
15554;DHT22;7878;44.632;10.942;2023-10-13T08:55:58;23.50;99.90
15554;DHT22;7878;44.632;10.942;2023-10-13T08:58:39;23.70;99.90
15554;DHT22;7878;44.632;10.942;2023-10-13T09:01:35;23.80;99.90
15554;DHT22;7878;44.632;10.942;2023-10-13T09:04:18;23.90;99.90
15554;DHT22;7878;44.632;10.942;2023-10-13T09:07:01;23.90;99.90
15554;DHT22;7878;44.632;10.942;2023-10-13T09:09:45;24.00;99.90
15554;DHT22;7878;44.632;10.942;2023-10-13T09:12:18;24.10;99.90
15554;DHT22;7878;44.632;10.942;2023-10-13T09:14:54;24.20;99.90
15554;DHT22;7878;44.632;10.942;2023-10-13T09:17:30;24.20;99.90
15554;DHT22;7878;44.632;10.942;2023-10-13T09:20:09;24.20;99.90
15554;DHT22;7878;44.632;10.942;2023-10-13T09:22:54;24.30;99.90
15554;DHT22;7878;44.632;10.942;2023-10-13T09:25:29;24.40;99.90
15554;DHT22;7878;44.632;10.942;2023-10-13T09:27:59;24.50;99.90
15554;DHT22;7878;44.632;10.942;2023-10-13T09:30:26;24.60;99.90
15554;DHT22;7878;44.632;10.942;2023-10-13T09:33:00;24.60;99.90
15554;DHT22;7878;44.632;10.942;2023-10-13T09:35:28;24.70;99.90
15554;DHT22;7878;44.632;10.942;2023-10-13T09:37:54;24.80;99.90
15554;DHT22;7878;44.632;10.942;2023-10-13T09:40:23;24.80;99.90
15554;DHT22;7878;44.632;10.942;2023-10-13T09:43:01;24.90;99.90
15554;DHT22;7878;44.632;10.942;2023-10-13T09:45:35;24.90;99.90
15554;DHT22;7878;44.632;10.942;2023-10-13T09:48:12;25.00;99.90
15554;DHT22;7878;44.632;10.942;2023-10-13T09:50:48;25.00;99.90
15554;DHT22;7878;44.632;10.942;2023-10-13T09:53:17;25.20;99.90
15554;DHT22;7878;44.632;10.942;2023-10-13T09:58:27;25.30;99.90
15554;DHT22;7878;44.632;10.942;2023-10-13T10:01:02;25.40;99.90
15554;DHT22;7878;44.632;10.942;2023-10-13T10:03:47;25.40;99.90
15554;DHT22;7878;44.632;10.942;2023-10-13T10:06:32;25.60;99.90
15554;DHT22;7878;44.632;10.942;2023-10-13T10:09:09;25.60;99.90
15554;DHT22;7878;44.632;10.942;2023-10-13T10:12:11;25.70;99.90
15554;DHT22;7878;44.632;10.942;2023-10-13T10:17:54;25.90;99.90
15554;DHT22;7878;44.632;10.942;2023-10-13T10:20:32;26.20;99.90
15554;DHT22;7878;44.632;10.942;2023-10-13T10:23:28;26.40;99.90
15554;DHT22;7878;44.632;10.942;2023-10-13T10:26:14;26.60;99.90
15554;DHT22;7878;44.632;10.942;2023-10-13T10:28:42;27.00;99.90
15554;DHT22;7878;44.632;10.942;2023-10-13T10:31:09;27.10;99.90
15554;DHT22;7878;44.632;10.942;2023-10-13T10:33:43;27.60;99.90
15554;DHT22;7878;44.632;10.942;2023-10-13T10:36:09;28.80;99.90
15554;DHT22;7878;44.632;10.942;2023-10-13T10:38:53;29.60;99.90
15554;DHT22;7878;44.632;10.942;2023-10-13T10:41:31;28.50;99.90
15554;DHT22;7878;44.632;10.942;2023-10-13T10:46:49;27.70;99.90
15554;DHT22;7878;44.632;10.942;2023-10-13T10:49:22;27.60;99.90
15554;DHT22;7878;44.632;10.942;2023-10-13T10:52:01;27.40;99.90
15554;DHT22;7878;44.632;10.942;2023-10-13T10:54:29;27.40;99.90
15554;DHT22;7878;44.632;10.942;2023-10-13T10:56:58;27.60;99.90
15554;DHT22;7878;44.632;10.942;2023-10-13T10:59:37;27.60;99.90
15554;DHT22;7878;44.632;10.942;2023-10-13T11:02:03;27.90;99.90
15554;DHT22;7878;44.632;10.942;2023-10-13T11:04:29;28.40;99.90
15554;DHT22;7878;44.632;10.942;2023-10-13T11:07:06;29.00;99.90
15554;DHT22;7878;44.632;10.942;2023-10-13T11:09:34;30.20;99.90
15554;DHT22;7878;44.632;10.942;2023-10-13T11:12:12;32.00;99.80
15554;DHT22;7878;44.632;10.942;2023-10-13T11:14:44;34.00;96.20
15554;DHT22;7878;44.632;10.942;2023-10-13T11:17:22;36.10;94.70
15554;DHT22;7878;44.632;10.942;2023-10-13T11:19:51;37.70;92.10
15554;DHT22;7878;44.632;10.942;2023-10-13T11:22:19;38.70;93.30
15554;DHT22;7878;44.632;10.942;2023-10-13T11:25:08;38.50;91.70
15554;DHT22;7878;44.632;10.942;2023-10-13T11:27:41;39.00;92.00
15554;DHT22;7878;44.632;10.942;2023-10-13T11:30:19;39.20;91.10
15554;DHT22;7878;44.632;10.942;2023-10-13T11:33:10;38.50;88.60
15554;DHT22;7878;44.632;10.942;2023-10-13T11:35:37;39.40;83.90
15554;DHT22;7878;44.632;10.942;2023-10-13T11:38:28;39.90;89.20
15554;DHT22;7878;44.632;10.942;2023-10-13T11:41:02;39.80;87.10
15554;DHT22;7878;44.632;10.942;2023-10-13T11:43:32;38.70;84.50
15554;DHT22;7878;44.632;10.942;2023-10-13T11:46:05;35.70;84.50
15554;DHT22;7878;44.632;10.942;2023-10-13T11:48:34;33.50;91.00
15554;DHT22;7878;44.632;10.942;2023-10-13T11:51:05;32.40;92.70
15554;DHT22;7878;44.632;10.942;2023-10-13T11:53:35;31.50;93.50
15554;DHT22;7878;44.632;10.942;2023-10-13T11:56:04;31.10;92.70
15554;DHT22;7878;44.632;10.942;2023-10-13T11:58:38;30.70;92.80
15554;DHT22;7878;44.632;10.942;2023-10-13T12:01:05;30.30;94.80
15554;DHT22;7878;44.632;10.942;2023-10-13T12:03:43;30.20;95.10
15554;DHT22;7878;44.632;10.942;2023-10-13T12:06:28;29.90;93.90
15554;DHT22;7878;44.632;10.942;2023-10-13T12:09:05;29.70;95.00
15554;DHT22;7878;44.632;10.942;2023-10-13T12:11:49;29.50;95.60
15554;DHT22;7878;44.632;10.942;2023-10-13T12:14:20;29.50;95.50
15554;DHT22;7878;44.632;10.942;2023-10-13T12:17:05;29.40;95.20
15554;DHT22;7878;44.632;10.942;2023-10-13T12:19:36;29.20;94.70
15554;DHT22;7878;44.632;10.942;2023-10-13T12:22:04;29.20;95.80
15554;DHT22;7878;44.632;10.942;2023-10-13T12:24:34;29.30;96.00
15554;DHT22;7878;44.632;10.942;2023-10-13T12:27:00;29.20;95.70
15554;DHT22;7878;44.632;10.942;2023-10-13T12:29:26;29.10;96.00
15554;DHT22;7878;44.632;10.942;2023-10-13T12:31:55;29.00;96.30
15554;DHT22;7878;44.632;10.942;2023-10-13T12:34:34;29.00;96.00
15554;DHT22;7878;44.632;10.942;2023-10-13T12:37:30;28.90;96.30
15554;DHT22;7878;44.632;10.942;2023-10-13T12:40:07;28.80;95.00
15554;DHT22;7878;44.632;10.942;2023-10-13T12:42:51;28.50;95.80
15554;DHT22;7878;44.632;10.942;2023-10-13T12:45:43;28.40;96.50
15554;DHT22;7878;44.632;10.942;2023-10-13T12:48:28;28.20;95.00
15554;DHT22;7878;44.632;10.942;2023-10-13T12:51:12;28.10;96.20
15554;DHT22;7878;44.632;10.942;2023-10-13T12:53:57;28.00;96.30
15554;DHT22;7878;44.632;10.942;2023-10-13T12:56:31;28.00;96.60
15554;DHT22;7878;44.632;10.942;2023-10-13T12:58:56;28.00;96.70
15554;DHT22;7878;44.632;10.942;2023-10-13T13:01:24;28.00;96.70
15554;DHT22;7878;44.632;10.942;2023-10-13T13:03:52;28.00;96.50
15554;DHT22;7878;44.632;10.942;2023-10-13T13:06:22;28.00;96.60
15554;DHT22;7878;44.632;10.942;2023-10-13T13:08:58;28.00;96.90
15554;DHT22;7878;44.632;10.942;2023-10-13T13:11:24;28.00;96.50
15554;DHT22;7878;44.632;10.942;2023-10-13T13:13:50;28.00;96.10
15554;DHT22;7878;44.632;10.942;2023-10-13T13:16:18;28.00;97.00
15554;DHT22;7878;44.632;10.942;2023-10-13T13:18:45;28.00;97.00
15554;DHT22;7878;44.632;10.942;2023-10-13T13:21:10;28.00;96.90
15554;DHT22;7878;44.632;10.942;2023-10-13T13:23:48;28.00;96.20
15554;DHT22;7878;44.632;10.942;2023-10-13T13:26:14;28.00;96.50
15554;DHT22;7878;44.632;10.942;2023-10-13T13:28:46;28.00;97.10
15554;DHT22;7878;44.632;10.942;2023-10-13T13:31:18;28.00;96.60
15554;DHT22;7878;44.632;10.942;2023-10-13T13:33:44;27.90;96.90
15554;DHT22;7878;44.632;10.942;2023-10-13T13:36:10;27.90;97.00
15554;DHT22;7878;44.632;10.942;2023-10-13T13:38:44;27.90;96.70
15554;DHT22;7878;44.632;10.942;2023-10-13T13:41:16;27.80;96.90
15554;DHT22;7878;44.632;10.942;2023-10-13T13:43:48;27.70;96.70
15554;DHT22;7878;44.632;10.942;2023-10-13T13:46:24;27.70;96.10
15554;DHT22;7878;44.632;10.942;2023-10-13T13:48:53;27.70;96.30
15554;DHT22;7878;44.632;10.942;2023-10-13T13:51:29;27.50;96.90
15554;DHT22;7878;44.632;10.942;2023-10-13T13:53:58;27.40;96.50
15554;DHT22;7878;44.632;10.942;2023-10-13T13:56:24;27.30;96.90
15554;DHT22;7878;44.632;10.942;2023-10-13T13:58:51;27.40;97.30
15554;DHT22;7878;44.632;10.942;2023-10-13T14:01:18;27.40;97.10
15554;DHT22;7878;44.632;10.942;2023-10-13T14:03:46;27.40;97.50
15554;DHT22;7878;44.632;10.942;2023-10-13T14:06:18;27.40;97.10
15554;DHT22;7878;44.632;10.942;2023-10-13T14:08:49;27.40;97.10
15554;DHT22;7878;44.632;10.942;2023-10-13T14:11:19;27.50;97.60
15554;DHT22;7878;44.632;10.942;2023-10-13T14:13:49;27.40;97.50
15554;DHT22;7878;44.632;10.942;2023-10-13T14:16:20;27.40;97.50
15554;DHT22;7878;44.632;10.942;2023-10-13T14:18:50;27.40;97.40
15554;DHT22;7878;44.632;10.942;2023-10-13T14:21:16;27.40;96.90
15554;DHT22;7878;44.632;10.942;2023-10-13T14:23:49;27.40;97.50
15554;DHT22;7878;44.632;10.942;2023-10-13T14:26:16;27.50;96.90
15554;DHT22;7878;44.632;10.942;2023-10-13T14:28:51;27.50;97.50
15554;DHT22;7878;44.632;10.942;2023-10-13T14:31:29;27.50;97.50
15554;DHT22;7878;44.632;10.942;2023-10-13T14:33:55;27.40;97.60
15554;DHT22;7878;44.632;10.942;2023-10-13T14:36:22;27.40;97.70
15554;DHT22;7878;44.632;10.942;2023-10-13T14:38:48;27.40;97.70
15554;DHT22;7878;44.632;10.942;2023-10-13T14:41:18;27.40;97.50
15554;DHT22;7878;44.632;10.942;2023-10-13T14:43:44;27.30;97.60
15554;DHT22;7878;44.632;10.942;2023-10-13T14:46:17;27.30;97.60
15554;DHT22;7878;44.632;10.942;2023-10-13T14:48:43;27.30;97.50
15554;DHT22;7878;44.632;10.942;2023-10-13T14:51:12;27.30;97.40
15554;DHT22;7878;44.632;10.942;2023-10-13T14:53:44;27.20;97.20
15554;DHT22;7878;44.632;10.942;2023-10-13T14:56:19;27.20;97.50
15554;DHT22;7878;44.632;10.942;2023-10-13T14:58:44;27.20;96.90
15554;DHT22;7878;44.632;10.942;2023-10-13T15:01:28;27.20;97.70
15554;DHT22;7878;44.632;10.942;2023-10-13T15:03:54;27.20;96.70
15554;DHT22;7878;44.632;10.942;2023-10-13T15:06:24;27.10;97.60
15554;DHT22;7878;44.632;10.942;2023-10-13T15:08:52;27.10;97.60
15554;DHT22;7878;44.632;10.942;2023-10-13T15:11:20;27.00;97.40
15554;DHT22;7878;44.632;10.942;2023-10-13T15:13:46;27.00;97.40
15554;DHT22;7878;44.632;10.942;2023-10-13T15:16:17;27.00;97.50
15554;DHT22;7878;44.632;10.942;2023-10-13T15:18:47;27.00;97.30
15554;DHT22;7878;44.632;10.942;2023-10-13T15:21:22;27.00;97.20
15554;DHT22;7878;44.632;10.942;2023-10-13T15:23:49;26.90;97.10
15554;DHT22;7878;44.632;10.942;2023-10-13T15:26:20;26.90;97.80
15554;DHT22;7878;44.632;10.942;2023-10-13T15:28:49;26.90;97.70
15554;DHT22;7878;44.632;10.942;2023-10-13T15:31:19;26.90;97.90
15554;DHT22;7878;44.632;10.942;2023-10-13T15:34:01;26.80;98.00
15554;DHT22;7878;44.632;10.942;2023-10-13T15:36:41;26.80;97.80
15554;DHT22;7878;44.632;10.942;2023-10-13T15:39:13;26.70;97.80
15554;DHT22;7878;44.632;10.942;2023-10-13T15:41:41;26.70;97.70
15554;DHT22;7878;44.632;10.942;2023-10-13T15:44:12;26.70;98.10
15554;DHT22;7878;44.632;10.942;2023-10-13T15:46:38;26.70;97.90
15554;DHT22;7878;44.632;10.942;2023-10-13T15:49:05;26.60;98.10
15554;DHT22;7878;44.632;10.942;2023-10-13T15:51:34;26.60;98.10
15554;DHT22;7878;44.632;10.942;2023-10-13T15:54:02;26.60;98.30
15554;DHT22;7878;44.632;10.942;2023-10-13T15:56:28;26.60;98.40
15554;DHT22;7878;44.632;10.942;2023-10-13T15:59:01;26.60;98.60
15554;DHT22;7878;44.632;10.942;2023-10-13T16:01:27;26.50;98.50
15554;DHT22;7878;44.632;10.942;2023-10-13T16:03:54;26.50;98.60
15554;DHT22;7878;44.632;10.942;2023-10-13T16:06:20;26.40;98.50
15554;DHT22;7878;44.632;10.942;2023-10-13T16:08:51;26.40;98.30
15554;DHT22;7878;44.632;10.942;2023-10-13T16:11:18;26.40;98.60
15554;DHT22;7878;44.632;10.942;2023-10-13T16:13:44;26.30;98.70
15554;DHT22;7878;44.632;10.942;2023-10-13T16:16:20;26.20;98.70
15554;DHT22;7878;44.632;10.942;2023-10-13T16:18:51;26.20;98.60
15554;DHT22;7878;44.632;10.942;2023-10-13T16:21:17;26.20;98.90